Terminal Aerodrome Forecast
Issued by NWS

Current Version | Previous Version | Text Only | Print | Product List | Glossary Off
Versions: 1 2 3 4 5 6 7 8 9 10 11 12 13 14 15 16 17

000
FTUS41 KILN 251700 RRA
TAFLCK
TAF
KLCK 251742Z 2518/2618 15005KT P6SM VCSH BKN035
     FM260000 14003KT P6SM SKC
      TEMPO 2609/2612 4SM BR
     FM261500 21005KT P6SM SCT030 SCT250=

USA.gov is the U.S. government's official web portal to all federal, state and local government web resources and services.